sensor_id;sensor_type;location;lat;lon;timestamp;P1;durP1;ratioP1;P2;durP2;ratioP2
19339;SDS011;9804;52.350;6.684;2023-07-31T00:01:17;2.80;;;1.83;;
19339;SDS011;9804;52.350;6.684;2023-07-31T00:03:42;3.05;;;2.10;;
19339;SDS011;9804;52.350;6.684;2023-07-31T00:06:07;3.20;;;2.17;;
19339;SDS011;9804;52.350;6.684;2023-07-31T00:08:33;2.45;;;1.80;;
19339;SDS011;9804;52.350;6.684;2023-07-31T00:10:58;2.88;;;2.00;;
19339;SDS011;9804;52.350;6.684;2023-07-31T00:13:23;3.42;;;2.13;;
19339;SDS011;9804;52.350;6.684;2023-07-31T00:15:49;2.20;;;1.80;;
19339;SDS011;9804;52.350;6.684;2023-07-31T00:18:15;3.03;;;2.20;;
19339;SDS011;9804;52.350;6.684;2023-07-31T00:20:40;3.45;;;1.98;;
19339;SDS011;9804;52.350;6.684;2023-07-31T00:23:06;3.15;;;1.67;;
19339;SDS011;9804;52.350;6.684;2023-07-31T00:25:31;2.15;;;1.80;;
19339;SDS011;9804;52.350;6.684;2023-07-31T00:27:57;2.90;;;2.10;;
19339;SDS011;9804;52.350;6.684;2023-07-31T00:30:22;4.13;;;1.73;;
19339;SDS011;9804;52.350;6.684;2023-07-31T00:32:47;3.38;;;2.28;;
19339;SDS011;9804;52.350;6.684;2023-07-31T00:35:13;2.90;;;2.08;;
19339;SDS011;9804;52.350;6.684;2023-07-31T00:37:38;3.33;;;2.13;;
19339;SDS011;9804;52.350;6.684;2023-07-31T00:40:03;2.58;;;1.77;;
19339;SDS011;9804;52.350;6.684;2023-07-31T00:42:29;3.05;;;1.90;;
19339;SDS011;9804;52.350;6.684;2023-07-31T00:44:55;5.88;;;2.60;;
19339;SDS011;9804;52.350;6.684;2023-07-31T00:47:20;2.83;;;1.80;;
19339;SDS011;9804;52.350;6.684;2023-07-31T00:49:46;2.40;;;2.20;;
19339;SDS011;9804;52.350;6.684;2023-07-31T00:52:11;2.63;;;2.08;;
19339;SDS011;9804;52.350;6.684;2023-07-31T00:54:37;4.32;;;1.77;;
19339;SDS011;9804;52.350;6.684;2023-07-31T00:57:03;3.90;;;1.98;;
19339;SDS011;9804;52.350;6.684;2023-07-31T00:59:28;3.60;;;1.75;;
19339;SDS011;9804;52.350;6.684;2023-07-31T01:01:54;1.70;;;1.45;;
19339;SDS011;9804;52.350;6.684;2023-07-31T01:04:19;1.92;;;1.55;;
19339;SDS011;9804;52.350;6.684;2023-07-31T01:06:49;2.47;;;1.33;;
19339;SDS011;9804;52.350;6.684;2023-07-31T01:12:06;1.83;;;1.33;;
19339;SDS011;9804;52.350;6.684;2023-07-31T01:14:32;2.00;;;1.10;;
19339;SDS011;9804;52.350;6.684;2023-07-31T01:16:58;1.83;;;1.27;;
19339;SDS011;9804;52.350;6.684;2023-07-31T01:19:24;1.40;;;1.30;;
19339;SDS011;9804;52.350;6.684;2023-07-31T01:24:54;3.47;;;1.38;;
19339;SDS011;9804;52.350;6.684;2023-07-31T01:27:37;1.90;;;1.40;;
19339;SDS011;9804;52.350;6.684;2023-07-31T01:30:14;2.67;;;1.67;;
19339;SDS011;9804;52.350;6.684;2023-07-31T01:32:42;1.60;;;1.50;;
19339;SDS011;9804;52.350;6.684;2023-07-31T01:35:10;1.75;;;1.65;;
19339;SDS011;9804;52.350;6.684;2023-07-31T01:37:36;2.03;;;1.73;;
19339;SDS011;9804;52.350;6.684;2023-07-31T01:40:01;2.33;;;1.70;;
19339;SDS011;9804;52.350;6.684;2023-07-31T01:42:27;2.72;;;1.60;;
19339;SDS011;9804;52.350;6.684;2023-07-31T01:44:52;1.35;;;1.25;;
19339;SDS011;9804;52.350;6.684;2023-07-31T01:47:17;2.35;;;1.40;;
19339;SDS011;9804;52.350;6.684;2023-07-31T01:49:43;2.08;;;1.25;;
19339;SDS011;9804;52.350;6.684;2023-07-31T01:52:08;2.40;;;1.20;;
19339;SDS011;9804;52.350;6.684;2023-07-31T01:54:33;1.08;;;0.82;;
19339;SDS011;9804;52.350;6.684;2023-07-31T01:56:59;1.30;;;1.00;;
19339;SDS011;9804;52.350;6.684;2023-07-31T01:59:24;0.70;;;0.70;;
19339;SDS011;9804;52.350;6.684;2023-07-31T02:01:50;0.80;;;0.80;;
19339;SDS011;9804;52.350;6.684;2023-07-31T02:04:15;1.23;;;0.90;;
19339;SDS011;9804;52.350;6.684;2023-07-31T02:06:40;1.98;;;0.70;;
19339;SDS011;9804;52.350;6.684;2023-07-31T02:09:06;0.70;;;0.50;;
19339;SDS011;9804;52.350;6.684;2023-07-31T02:11:31;0.70;;;0.70;;
19339;SDS011;9804;52.350;6.684;2023-07-31T02:13:57;1.13;;;0.68;;
19339;SDS011;9804;52.350;6.684;2023-07-31T02:16:22;2.33;;;0.95;;
19339;SDS011;9804;52.350;6.684;2023-07-31T02:18:47;1.38;;;0.90;;
19339;SDS011;9804;52.350;6.684;2023-07-31T02:21:13;2.55;;;0.93;;
19339;SDS011;9804;52.350;6.684;2023-07-31T02:23:38;0.80;;;0.70;;
19339;SDS011;9804;52.350;6.684;2023-07-31T02:26:03;3.20;;;1.10;;
19339;SDS011;9804;52.350;6.684;2023-07-31T02:28:29;1.30;;;0.95;;
19339;SDS011;9804;52.350;6.684;2023-07-31T02:30:54;1.75;;;1.00;;
19339;SDS011;9804;52.350;6.684;2023-07-31T02:33:20;4.20;;;1.15;;
19339;SDS011;9804;52.350;6.684;2023-07-31T02:35:45;1.27;;;0.85;;
19339;SDS011;9804;52.350;6.684;2023-07-31T02:38:10;1.20;;;1.10;;
19339;SDS011;9804;52.350;6.684;2023-07-31T02:40:36;1.77;;;1.00;;
19339;SDS011;9804;52.350;6.684;2023-07-31T02:43:01;1.75;;;1.13;;
19339;SDS011;9804;52.350;6.684;2023-07-31T02:45:27;1.65;;;0.88;;
19339;SDS011;9804;52.350;6.684;2023-07-31T02:47:52;1.77;;;0.90;;
19339;SDS011;9804;52.350;6.684;2023-07-31T02:50:18;3.00;;;1.02;;
19339;SDS011;9804;52.350;6.684;2023-07-31T02:52:43;3.95;;;1.17;;
19339;SDS011;9804;52.350;6.684;2023-07-31T02:55:08;1.42;;;1.13;;
19339;SDS011;9804;52.350;6.684;2023-07-31T02:57:34;2.40;;;1.30;;
19339;SDS011;9804;52.350;6.684;2023-07-31T02:59:59;5.53;;;1.60;;
19339;SDS011;9804;52.350;6.684;2023-07-31T03:02:24;3.42;;;1.70;;
19339;SDS011;9804;52.350;6.684;2023-07-31T03:04:50;3.35;;;1.65;;
19339;SDS011;9804;52.350;6.684;2023-07-31T03:07:15;3.08;;;2.00;;
19339;SDS011;9804;52.350;6.684;2023-07-31T03:09:40;4.57;;;1.98;;
19339;SDS011;9804;52.350;6.684;2023-07-31T03:12:06;3.55;;;2.22;;
19339;SDS011;9804;52.350;6.684;2023-07-31T03:14:32;5.68;;;2.10;;
19339;SDS011;9804;52.350;6.684;2023-07-31T03:16:58;6.57;;;2.38;;
19339;SDS011;9804;52.350;6.684;2023-07-31T03:19:24;4.57;;;2.22;;
19339;SDS011;9804;52.350;6.684;2023-07-31T03:21:49;5.22;;;2.45;;
19339;SDS011;9804;52.350;6.684;2023-07-31T03:24:15;3.40;;;2.30;;
19339;SDS011;9804;52.350;6.684;2023-07-31T03:26:40;4.07;;;2.33;;
19339;SDS011;9804;52.350;6.684;2023-07-31T03:29:06;6.88;;;2.67;;
19339;SDS011;9804;52.350;6.684;2023-07-31T03:31:32;5.35;;;2.70;;
19339;SDS011;9804;52.350;6.684;2023-07-31T03:33:58;5.25;;;2.63;;
19339;SDS011;9804;52.350;6.684;2023-07-31T03:36:23;6.10;;;2.75;;
19339;SDS011;9804;52.350;6.684;2023-07-31T03:38:49;6.93;;;2.83;;
19339;SDS011;9804;52.350;6.684;2023-07-31T03:41:16;5.65;;;2.55;;
19339;SDS011;9804;52.350;6.684;2023-07-31T03:43:41;5.78;;;3.20;;
19339;SDS011;9804;52.350;6.684;2023-07-31T03:46:06;5.75;;;3.03;;
19339;SDS011;9804;52.350;6.684;2023-07-31T03:48:32;5.68;;;3.00;;
19339;SDS011;9804;52.350;6.684;2023-07-31T03:50:57;4.95;;;3.28;;
19339;SDS011;9804;52.350;6.684;2023-07-31T03:53:22;8.02;;;3.60;;
19339;SDS011;9804;52.350;6.684;2023-07-31T03:55:48;10.18;;;4.20;;
19339;SDS011;9804;52.350;6.684;2023-07-31T03:58:13;9.38;;;4.22;;
19339;SDS011;9804;52.350;6.684;2023-07-31T04:00:39;8.32;;;4.47;;
19339;SDS011;9804;52.350;6.684;2023-07-31T04:03:05;11.23;;;5.20;;
19339;SDS011;9804;52.350;6.684;2023-07-31T04:05:31;16.25;;;6.68;;
19339;SDS011;9804;52.350;6.684;2023-07-31T04:07:57;24.00;;;7.88;;
19339;SDS011;9804;52.350;6.684;2023-07-31T04:10:23;19.63;;;8.10;;
19339;SDS011;9804;52.350;6.684;2023-07-31T04:12:48;20.13;;;7.57;;
19339;SDS011;9804;52.350;6.684;2023-07-31T04:15:14;19.95;;;8.35;;
19339;SDS011;9804;52.350;6.684;2023-07-31T04:17:39;27.60;;;9.48;;
19339;SDS011;9804;52.350;6.684;2023-07-31T04:20:05;29.20;;;10.02;;
19339;SDS011;9804;52.350;6.684;2023-07-31T04:22:31;23.98;;;9.27;;
19339;SDS011;9804;52.350;6.684;2023-07-31T04:24:56;26.80;;;9.82;;
19339;SDS011;9804;52.350;6.684;2023-07-31T04:27:21;21.42;;;9.43;;
19339;SDS011;9804;52.350;6.684;2023-07-31T04:29:47;33.80;;;11.73;;
19339;SDS011;9804;52.350;6.684;2023-07-31T04:32:12;30.05;;;10.27;;
19339;SDS011;9804;52.350;6.684;2023-07-31T04:34:38;24.80;;;9.70;;
19339;SDS011;9804;52.350;6.684;2023-07-31T04:37:03;27.73;;;9.70;;
19339;SDS011;9804;52.350;6.684;2023-07-31T04:39:29;26.77;;;10.38;;
19339;SDS011;9804;52.350;6.684;2023-07-31T04:41:54;27.73;;;10.05;;
19339;SDS011;9804;52.350;6.684;2023-07-31T04:44:19;28.10;;;11.52;;
19339;SDS011;9804;52.350;6.684;2023-07-31T04:46:45;31.58;;;11.07;;
19339;SDS011;9804;52.350;6.684;2023-07-31T04:49:10;32.53;;;10.68;;
19339;SDS011;9804;52.350;6.684;2023-07-31T04:51:36;26.80;;;11.27;;
19339;SDS011;9804;52.350;6.684;2023-07-31T04:54:02;31.60;;;11.68;;
19339;SDS011;9804;52.350;6.684;2023-07-31T04:56:27;28.27;;;11.02;;
19339;SDS011;9804;52.350;6.684;2023-07-31T04:58:52;30.15;;;11.13;;
19339;SDS011;9804;52.350;6.684;2023-07-31T05:01:18;37.17;;;11.40;;
19339;SDS011;9804;52.350;6.684;2023-07-31T05:03:43;32.63;;;11.52;;
19339;SDS011;9804;52.350;6.684;2023-07-31T05:06:08;26.17;;;11.15;;
19339;SDS011;9804;52.350;6.684;2023-07-31T05:08:34;29.45;;;11.68;;
19339;SDS011;9804;52.350;6.684;2023-07-31T05:10:59;35.00;;;11.65;;
19339;SDS011;9804;52.350;6.684;2023-07-31T05:13:24;35.90;;;11.57;;
19339;SDS011;9804;52.350;6.684;2023-07-31T05:15:50;39.20;;;11.60;;
19339;SDS011;9804;52.350;6.684;2023-07-31T05:18:15;29.85;;;11.75;;
19339;SDS011;9804;52.350;6.684;2023-07-31T05:20:41;34.28;;;11.65;;
19339;SDS011;9804;52.350;6.684;2023-07-31T05:23:06;29.45;;;11.05;;
19339;SDS011;9804;52.350;6.684;2023-07-31T05:25:31;34.78;;;11.25;;
19339;SDS011;9804;52.350;6.684;2023-07-31T05:27:57;30.08;;;10.00;;
19339;SDS011;9804;52.350;6.684;2023-07-31T05:30:22;31.63;;;10.77;;
19339;SDS011;9804;52.350;6.684;2023-07-31T05:32:48;30.30;;;10.02;;
19339;SDS011;9804;52.350;6.684;2023-07-31T05:35:13;33.80;;;10.70;;
19339;SDS011;9804;52.350;6.684;2023-07-31T05:37:38;33.72;;;10.30;;
19339;SDS011;9804;52.350;6.684;2023-07-31T05:40:04;27.10;;;10.02;;
19339;SDS011;9804;52.350;6.684;2023-07-31T05:42:30;26.13;;;10.10;;
19339;SDS011;9804;52.350;6.684;2023-07-31T05:44:55;32.03;;;10.75;;
19339;SDS011;9804;52.350;6.684;2023-07-31T05:47:21;28.08;;;9.95;;
19339;SDS011;9804;52.350;6.684;2023-07-31T05:49:46;26.52;;;9.57;;
19339;SDS011;9804;52.350;6.684;2023-07-31T05:52:11;23.20;;;9.52;;
19339;SDS011;9804;52.350;6.684;2023-07-31T05:54:37;29.40;;;10.15;;
19339;SDS011;9804;52.350;6.684;2023-07-31T05:57:02;32.10;;;10.38;;
19339;SDS011;9804;52.350;6.684;2023-07-31T05:59:28;28.77;;;9.43;;
19339;SDS011;9804;52.350;6.684;2023-07-31T06:01:53;28.98;;;9.65;;
19339;SDS011;9804;52.350;6.684;2023-07-31T06:04:18;26.58;;;9.30;;
19339;SDS011;9804;52.350;6.684;2023-07-31T06:06:44;23.48;;;9.50;;
19339;SDS011;9804;52.350;6.684;2023-07-31T06:09:09;28.73;;;9.65;;
19339;SDS011;9804;52.350;6.684;2023-07-31T06:11:34;24.00;;;8.73;;
19339;SDS011;9804;52.350;6.684;2023-07-31T06:14:00;22.33;;;8.95;;
19339;SDS011;9804;52.350;6.684;2023-07-31T06:16:25;26.45;;;8.95;;
19339;SDS011;9804;52.350;6.684;2023-07-31T06:18:52;25.00;;;8.75;;
19339;SDS011;9804;52.350;6.684;2023-07-31T06:21:17;26.13;;;9.10;;
19339;SDS011;9804;52.350;6.684;2023-07-31T06:23:43;24.77;;;8.65;;
19339;SDS011;9804;52.350;6.684;2023-07-31T06:26:08;25.10;;;8.98;;
19339;SDS011;9804;52.350;6.684;2023-07-31T06:28:34;26.13;;;9.27;;
19339;SDS011;9804;52.350;6.684;2023-07-31T06:31:00;26.20;;;9.15;;
19339;SDS011;9804;52.350;6.684;2023-07-31T06:33:26;18.90;;;9.13;;
19339;SDS011;9804;52.350;6.684;2023-07-31T06:35:52;20.65;;;8.57;;
19339;SDS011;9804;52.350;6.684;2023-07-31T06:38:21;19.58;;;8.68;;
19339;SDS011;9804;52.350;6.684;2023-07-31T06:40:48;21.75;;;8.45;;
19339;SDS011;9804;52.350;6.684;2023-07-31T06:43:14;23.60;;;8.50;;
19339;SDS011;9804;52.350;6.684;2023-07-31T06:45:39;21.00;;;9.07;;
19339;SDS011;9804;52.350;6.684;2023-07-31T06:48:04;21.63;;;9.05;;
19339;SDS011;9804;52.350;6.684;2023-07-31T06:50:30;19.92;;;8.30;;
19339;SDS011;9804;52.350;6.684;2023-07-31T06:52:56;20.02;;;8.07;;
19339;SDS011;9804;52.350;6.684;2023-07-31T06:55:22;21.88;;;7.97;;
19339;SDS011;9804;52.350;6.684;2023-07-31T06:57:48;16.20;;;8.07;;
19339;SDS011;9804;52.350;6.684;2023-07-31T07:00:15;22.13;;;8.40;;
19339;SDS011;9804;52.350;6.684;2023-07-31T07:02:41;20.15;;;8.13;;
19339;SDS011;9804;52.350;6.684;2023-07-31T07:05:07;20.98;;;8.68;;
19339;SDS011;9804;52.350;6.684;2023-07-31T07:07:33;18.85;;;7.93;;
19339;SDS011;9804;52.350;6.684;2023-07-31T07:09:58;15.57;;;7.50;;
19339;SDS011;9804;52.350;6.684;2023-07-31T07:12:29;17.85;;;7.43;;
19339;SDS011;9804;52.350;6.684;2023-07-31T07:14:55;13.88;;;6.68;;
19339;SDS011;9804;52.350;6.684;2023-07-31T07:17:22;13.48;;;6.82;;
19339;SDS011;9804;52.350;6.684;2023-07-31T07:19:47;13.48;;;6.15;;
19339;SDS011;9804;52.350;6.684;2023-07-31T07:22:13;15.30;;;6.00;;
19339;SDS011;9804;52.350;6.684;2023-07-31T07:24:39;9.75;;;5.72;;
19339;SDS011;9804;52.350;6.684;2023-07-31T07:27:04;14.68;;;5.70;;
19339;SDS011;9804;52.350;6.684;2023-07-31T07:29:30;9.40;;;4.93;;
19339;SDS011;9804;52.350;6.684;2023-07-31T07:31:55;14.25;;;5.43;;
19339;SDS011;9804;52.350;6.684;2023-07-31T07:34:25;12.80;;;5.15;;
19339;SDS011;9804;52.350;6.684;2023-07-31T07:36:52;10.23;;;4.53;;
19339;SDS011;9804;52.350;6.684;2023-07-31T07:39:17;11.98;;;5.22;;
19339;SDS011;9804;52.350;6.684;2023-07-31T07:41:42;8.75;;;5.13;;
19339;SDS011;9804;52.350;6.684;2023-07-31T07:44:08;10.25;;;4.80;;
19339;SDS011;9804;52.350;6.684;2023-07-31T07:46:33;10.15;;;5.10;;
19339;SDS011;9804;52.350;6.684;2023-07-31T07:48:59;7.30;;;4.20;;
19339;SDS011;9804;52.350;6.684;2023-07-31T07:51:24;8.40;;;4.18;;
19339;SDS011;9804;52.350;6.684;2023-07-31T07:53:49;8.30;;;3.80;;
19339;SDS011;9804;52.350;6.684;2023-07-31T07:56:15;10.35;;;3.90;;
19339;SDS011;9804;52.350;6.684;2023-07-31T07:58:41;9.15;;;4.55;;
19339;SDS011;9804;52.350;6.684;2023-07-31T08:01:06;7.82;;;4.05;;
19339;SDS011;9804;52.350;6.684;2023-07-31T08:03:31;5.63;;;3.13;;
19339;SDS011;9804;52.350;6.684;2023-07-31T08:06:00;7.25;;;3.33;;
19339;SDS011;9804;52.350;6.684;2023-07-31T08:08:27;3.83;;;2.70;;
19339;SDS011;9804;52.350;6.684;2023-07-31T08:10:53;8.13;;;3.85;;
19339;SDS011;9804;52.350;6.684;2023-07-31T08:13:18;7.32;;;3.00;;
19339;SDS011;9804;52.350;6.684;2023-07-31T08:15:43;5.40;;;2.72;;
19339;SDS011;9804;52.350;6.684;2023-07-31T08:18:09;5.65;;;2.40;;
19339;SDS011;9804;52.350;6.684;2023-07-31T08:20:36;5.03;;;2.95;;
19339;SDS011;9804;52.350;6.684;2023-07-31T08:23:02;4.45;;;2.53;;
19339;SDS011;9804;52.350;6.684;2023-07-31T08:25:28;5.72;;;2.83;;
19339;SDS011;9804;52.350;6.684;2023-07-31T08:27:53;4.25;;;2.10;;
19339;SDS011;9804;52.350;6.684;2023-07-31T08:30:19;5.32;;;2.20;;
19339;SDS011;9804;52.350;6.684;2023-07-31T08:32:44;4.32;;;1.75;;
19339;SDS011;9804;52.350;6.684;2023-07-31T08:35:10;3.25;;;1.70;;
19339;SDS011;9804;52.350;6.684;2023-07-31T08:37:35;2.85;;;2.00;;
19339;SDS011;9804;52.350;6.684;2023-07-31T08:40:01;4.40;;;1.85;;
19339;SDS011;9804;52.350;6.684;2023-07-31T08:42:27;3.30;;;1.83;;
19339;SDS011;9804;52.350;6.684;2023-07-31T08:44:52;3.13;;;1.77;;
19339;SDS011;9804;52.350;6.684;2023-07-31T08:47:20;1.77;;;1.38;;
19339;SDS011;9804;52.350;6.684;2023-07-31T08:49:46;3.45;;;1.60;;
19339;SDS011;9804;52.350;6.684;2023-07-31T08:52:13;2.28;;;1.15;;
19339;SDS011;9804;52.350;6.684;2023-07-31T08:54:38;1.98;;;1.40;;
19339;SDS011;9804;52.350;6.684;2023-07-31T08:57:05;1.98;;;1.30;;
19339;SDS011;9804;52.350;6.684;2023-07-31T08:59:31;1.50;;;1.00;;
19339;SDS011;9804;52.350;6.684;2023-07-31T09:02:01;1.60;;;1.20;;
19339;SDS011;9804;52.350;6.684;2023-07-31T09:04:30;1.50;;;1.10;;
19339;SDS011;9804;52.350;6.684;2023-07-31T09:06:57;1.00;;;0.90;;
19339;SDS011;9804;52.350;6.684;2023-07-31T09:09:26;0.80;;;0.80;;
19339;SDS011;9804;52.350;6.684;2023-07-31T09:11:51;2.55;;;0.60;;
19339;SDS011;9804;52.350;6.684;2023-07-31T09:14:17;2.00;;;0.85;;
19339;SDS011;9804;52.350;6.684;2023-07-31T09:16:57;0.93;;;0.60;;
19339;SDS011;9804;52.350;6.684;2023-07-31T09:19:34;1.33;;;0.68;;
19339;SDS011;9804;52.350;6.684;2023-07-31T09:22:04;2.38;;;0.90;;
19339;SDS011;9804;52.350;6.684;2023-07-31T09:24:31;0.77;;;0.70;;
19339;SDS011;9804;52.350;6.684;2023-07-31T09:26:59;1.38;;;0.80;;
19339;SDS011;9804;52.350;6.684;2023-07-31T09:29:26;1.00;;;0.88;;
19339;SDS011;9804;52.350;6.684;2023-07-31T09:31:54;0.80;;;0.80;;
19339;SDS011;9804;52.350;6.684;2023-07-31T09:34:20;0.80;;;0.80;;
19339;SDS011;9804;52.350;6.684;2023-07-31T09:36:52;1.00;;;0.80;;
19339;SDS011;9804;52.350;6.684;2023-07-31T09:39:18;1.85;;;1.25;;
19339;SDS011;9804;52.350;6.684;2023-07-31T09:41:53;1.20;;;1.10;;
19339;SDS011;9804;52.350;6.684;2023-07-31T09:44:19;1.20;;;0.90;;
19339;SDS011;9804;52.350;6.684;2023-07-31T09:46:45;1.27;;;1.17;;
19339;SDS011;9804;52.350;6.684;2023-07-31T09:49:11;0.93;;;0.93;;
19339;SDS011;9804;52.350;6.684;2023-07-31T09:51:38;1.92;;;1.20;;
19339;SDS011;9804;52.350;6.684;2023-07-31T09:54:14;1.42;;;1.25;;
19339;SDS011;9804;52.350;6.684;2023-07-31T09:56:45;1.33;;;1.23;;
19339;SDS011;9804;52.350;6.684;2023-07-31T09:59:13;1.20;;;1.10;;
19339;SDS011;9804;52.350;6.684;2023-07-31T10:01:40;1.33;;;1.17;;
19339;SDS011;9804;52.350;6.684;2023-07-31T10:04:07;1.40;;;1.30;;
19339;SDS011;9804;52.350;6.684;2023-07-31T10:06:35;1.60;;;1.50;;
19339;SDS011;9804;52.350;6.684;2023-07-31T10:09:08;2.53;;;1.33;;
19339;SDS011;9804;52.350;6.684;2023-07-31T10:11:43;1.67;;;1.58;;
19339;SDS011;9804;52.350;6.684;2023-07-31T10:14:20;1.80;;;1.70;;
19339;SDS011;9804;52.350;6.684;2023-07-31T10:16:46;2.03;;;1.92;;
19339;SDS011;9804;52.350;6.684;2023-07-31T10:19:12;1.70;;;1.60;;
19339;SDS011;9804;52.350;6.684;2023-07-31T10:21:38;2.28;;;2.05;;
19339;SDS011;9804;52.350;6.684;2023-07-31T10:24:04;1.92;;;1.73;;
19339;SDS011;9804;52.350;6.684;2023-07-31T10:26:30;2.17;;;1.75;;
19339;SDS011;9804;52.350;6.684;2023-07-31T10:28:57;1.60;;;1.50;;
19339;SDS011;9804;52.350;6.684;2023-07-31T10:31:23;2.30;;;1.70;;
19339;SDS011;9804;52.350;6.684;2023-07-31T10:33:49;2.35;;;2.15;;
19339;SDS011;9804;52.350;6.684;2023-07-31T10:36:19;2.60;;;2.05;;
19339;SDS011;9804;52.350;6.684;2023-07-31T10:38:45;4.57;;;2.10;;
19339;SDS011;9804;52.350;6.684;2023-07-31T10:41:13;3.25;;;2.30;;
19339;SDS011;9804;52.350;6.684;2023-07-31T10:43:39;3.65;;;2.17;;
19339;SDS011;9804;52.350;6.684;2023-07-31T10:46:08;2.50;;;2.30;;
19339;SDS011;9804;52.350;6.684;2023-07-31T10:48:38;3.83;;;2.28;;
19339;SDS011;9804;52.350;6.684;2023-07-31T10:51:10;2.58;;;2.38;;
19339;SDS011;9804;52.350;6.684;2023-07-31T10:53:42;2.75;;;2.17;;
19339;SDS011;9804;52.350;6.684;2023-07-31T10:56:08;2.72;;;2.53;;
19339;SDS011;9804;52.350;6.684;2023-07-31T10:58:36;3.47;;;2.78;;
19339;SDS011;9804;52.350;6.684;2023-07-31T11:01:03;3.10;;;2.90;;
19339;SDS011;9804;52.350;6.684;2023-07-31T11:03:46;3.58;;;3.05;;
19339;SDS011;9804;52.350;6.684;2023-07-31T11:06:17;3.50;;;3.20;;
19339;SDS011;9804;52.350;6.684;2023-07-31T11:08:44;4.15;;;3.30;;
19339;SDS011;9804;52.350;6.684;2023-07-31T11:11:12;3.83;;;3.45;;
19339;SDS011;9804;52.350;6.684;2023-07-31T11:13:49;5.25;;;4.50;;
19339;SDS011;9804;52.350;6.684;2023-07-31T11:16:17;5.25;;;4.75;;
19339;SDS011;9804;52.350;6.684;2023-07-31T11:18:44;5.30;;;4.72;;
19339;SDS011;9804;52.350;6.684;2023-07-31T11:21:12;6.95;;;5.35;;
19339;SDS011;9804;52.350;6.684;2023-07-31T11:23:45;5.78;;;4.78;;
19339;SDS011;9804;52.350;6.684;2023-07-31T11:26:11;7.18;;;6.43;;
19339;SDS011;9804;52.350;6.684;2023-07-31T11:28:37;6.80;;;5.72;;
19339;SDS011;9804;52.350;6.684;2023-07-31T11:31:03;6.03;;;5.47;;
19339;SDS011;9804;52.350;6.684;2023-07-31T11:33:29;8.10;;;6.03;;
19339;SDS011;9804;52.350;6.684;2023-07-31T11:35:54;6.90;;;6.20;;
19339;SDS011;9804;52.350;6.684;2023-07-31T11:40:49;9.60;;;6.72;;
19339;SDS011;9804;52.350;6.684;2023-07-31T11:43:14;9.40;;;7.03;;
19339;SDS011;9804;52.350;6.684;2023-07-31T11:45:44;9.27;;;7.63;;
19339;SDS011;9804;52.350;6.684;2023-07-31T11:48:26;8.88;;;7.97;;
19339;SDS011;9804;52.350;6.684;2023-07-31T11:50:55;9.55;;;7.70;;
19339;SDS011;9804;52.350;6.684;2023-07-31T11:53:25;10.48;;;8.27;;
19339;SDS011;9804;52.350;6.684;2023-07-31T11:55:55;10.02;;;8.52;;
19339;SDS011;9804;52.350;6.684;2023-07-31T11:58:25;10.77;;;9.20;;
19339;SDS011;9804;52.350;6.684;2023-07-31T12:00:52;11.65;;;8.93;;
19339;SDS011;9804;52.350;6.684;2023-07-31T12:03:18;12.35;;;9.50;;
19339;SDS011;9804;52.350;6.684;2023-07-31T12:05:43;10.88;;;9.55;;
19339;SDS011;9804;52.350;6.684;2023-07-31T12:08:10;14.15;;;9.73;;
19339;SDS011;9804;52.350;6.684;2023-07-31T12:10:39;14.95;;;10.02;;
19339;SDS011;9804;52.350;6.684;2023-07-31T12:13:08;10.65;;;9.50;;
19339;SDS011;9804;52.350;6.684;2023-07-31T12:15:44;12.90;;;9.63;;
19339;SDS011;9804;52.350;6.684;2023-07-31T12:18:11;12.48;;;10.38;;
19339;SDS011;9804;52.350;6.684;2023-07-31T12:20:42;11.85;;;9.20;;
19339;SDS011;9804;52.350;6.684;2023-07-31T12:23:12;12.98;;;10.50;;
19339;SDS011;9804;52.350;6.684;2023-07-31T12:25:59;10.85;;;9.27;;
19339;SDS011;9804;52.350;6.684;2023-07-31T12:28:25;10.40;;;9.25;;
19339;SDS011;9804;52.350;6.684;2023-07-31T12:30:50;12.32;;;9.23;;
19339;SDS011;9804;52.350;6.684;2023-07-31T12:33:16;10.43;;;8.25;;
19339;SDS011;9804;52.350;6.684;2023-07-31T12:35:44;8.65;;;7.50;;
19339;SDS011;9804;52.350;6.684;2023-07-31T12:38:12;8.35;;;7.55;;
19339;SDS011;9804;52.350;6.684;2023-07-31T12:40:38;7.40;;;6.70;;
19339;SDS011;9804;52.350;6.684;2023-07-31T12:43:04;8.45;;;7.60;;
19339;SDS011;9804;52.350;6.684;2023-07-31T12:45:30;8.10;;;7.30;;
19339;SDS011;9804;52.350;6.684;2023-07-31T12:47:56;13.13;;;7.18;;
19339;SDS011;9804;52.350;6.684;2023-07-31T12:50:23;9.98;;;7.18;;
19339;SDS011;9804;52.350;6.684;2023-07-31T12:52:48;9.40;;;7.10;;
19339;SDS011;9804;52.350;6.684;2023-07-31T12:55:14;7.03;;;6.22;;
19339;SDS011;9804;52.350;6.684;2023-07-31T12:57:40;7.25;;;6.55;;
19339;SDS011;9804;52.350;6.684;2023-07-31T13:00:07;8.40;;;7.15;;
19339;SDS011;9804;52.350;6.684;2023-07-31T13:02:32;10.90;;;7.95;;
19339;SDS011;9804;52.350;6.684;2023-07-31T13:04:58;8.27;;;7.22;;
19339;SDS011;9804;52.350;6.684;2023-07-31T13:07:23;9.60;;;8.18;;
19339;SDS011;9804;52.350;6.684;2023-07-31T13:09:49;11.02;;;7.72;;
19339;SDS011;9804;52.350;6.684;2023-07-31T13:12:14;10.07;;;7.72;;
19339;SDS011;9804;52.350;6.684;2023-07-31T13:14:39;9.50;;;8.30;;
19339;SDS011;9804;52.350;6.684;2023-07-31T13:17:05;10.45;;;8.98;;
19339;SDS011;9804;52.350;6.684;2023-07-31T13:19:30;10.68;;;9.48;;
19339;SDS011;9804;52.350;6.684;2023-07-31T13:21:55;12.27;;;9.38;;
19339;SDS011;9804;52.350;6.684;2023-07-31T13:24:21;9.90;;;8.77;;
19339;SDS011;9804;52.350;6.684;2023-07-31T13:26:46;12.57;;;9.05;;
19339;SDS011;9804;52.350;6.684;2023-07-31T13:29:11;12.18;;;9.13;;
19339;SDS011;9804;52.350;6.684;2023-07-31T13:31:37;12.10;;;9.38;;
19339;SDS011;9804;52.350;6.684;2023-07-31T13:34:02;10.38;;;8.93;;
19339;SDS011;9804;52.350;6.684;2023-07-31T13:36:28;10.65;;;8.13;;
19339;SDS011;9804;52.350;6.684;2023-07-31T13:38:53;10.63;;;8.40;;
19339;SDS011;9804;52.350;6.684;2023-07-31T13:41:18;10.18;;;8.77;;
19339;SDS011;9804;52.350;6.684;2023-07-31T13:43:44;8.90;;;7.78;;
19339;SDS011;9804;52.350;6.684;2023-07-31T13:46:09;10.55;;;7.70;;
19339;SDS011;9804;52.350;6.684;2023-07-31T13:48:36;9.15;;;7.72;;
19339;SDS011;9804;52.350;6.684;2023-07-31T13:51:01;10.20;;;7.70;;
19339;SDS011;9804;52.350;6.684;2023-07-31T13:53:27;10.02;;;7.82;;
19339;SDS011;9804;52.350;6.684;2023-07-31T13:55:52;12.00;;;7.25;;
19339;SDS011;9804;52.350;6.684;2023-07-31T13:58:17;10.07;;;6.72;;
19339;SDS011;9804;52.350;6.684;2023-07-31T14:00:43;9.30;;;6.55;;
19339;SDS011;9804;52.350;6.684;2023-07-31T14:03:08;7.05;;;6.28;;
19339;SDS011;9804;52.350;6.684;2023-07-31T14:05:34;7.72;;;6.55;;
19339;SDS011;9804;52.350;6.684;2023-07-31T14:08:00;8.02;;;5.97;;
19339;SDS011;9804;52.350;6.684;2023-07-31T14:10:25;8.07;;;6.07;;
19339;SDS011;9804;52.350;6.684;2023-07-31T14:12:51;9.50;;;6.22;;
19339;SDS011;9804;52.350;6.684;2023-07-31T14:15:16;7.93;;;6.13;;
19339;SDS011;9804;52.350;6.684;2023-07-31T14:17:41;10.98;;;6.40;;
19339;SDS011;9804;52.350;6.684;2023-07-31T14:20:07;7.43;;;5.88;;
19339;SDS011;9804;52.350;6.684;2023-07-31T14:22:33;7.60;;;6.78;;
19339;SDS011;9804;52.350;6.684;2023-07-31T14:24:59;7.20;;;5.82;;
19339;SDS011;9804;52.350;6.684;2023-07-31T14:27:25;7.65;;;6.00;;
19339;SDS011;9804;52.350;6.684;2023-07-31T14:29:50;8.30;;;6.45;;
19339;SDS011;9804;52.350;6.684;2023-07-31T14:32:16;9.18;;;6.43;;
19339;SDS011;9804;52.350;6.684;2023-07-31T14:34:41;8.43;;;6.68;;
19339;SDS011;9804;52.350;6.684;2023-07-31T14:37:06;8.63;;;6.72;;
19339;SDS011;9804;52.350;6.684;2023-07-31T14:39:32;7.82;;;7.03;;
19339;SDS011;9804;52.350;6.684;2023-07-31T14:41:57;10.90;;;7.68;;
19339;SDS011;9804;52.350;6.684;2023-07-31T14:44:22;11.50;;;7.78;;
19339;SDS011;9804;52.350;6.684;2023-07-31T14:46:48;11.60;;;7.32;;
19339;SDS011;9804;52.350;6.684;2023-07-31T14:49:14;9.85;;;7.53;;
19339;SDS011;9804;52.350;6.684;2023-07-31T14:51:39;10.70;;;8.25;;
19339;SDS011;9804;52.350;6.684;2023-07-31T14:54:05;8.80;;;7.38;;
19339;SDS011;9804;52.350;6.684;2023-07-31T14:56:30;8.15;;;7.25;;
19339;SDS011;9804;52.350;6.684;2023-07-31T14:58:55;9.77;;;7.38;;